首页
METAR-TAF:

METAR-TAF

机场 :

奥斯汀-伯格斯特国际机场

奧斯汀, 得克萨斯州, 美国

纬度: 30-11-40N, 经度: 097-40-12W, 海拔: 165米

当前天气观测

该预报发布于58分钟前的23:53 UTC
风速7节,风向
温度 26°C
湿度 61%
气压 1008 hPa
能見度: 16.1公里
散云层高于5000英尺
多云层高于20000英尺
阴天层高于22000英尺

METAR: KAUS 042353Z 17007KT 10SM SCT050 BKN200 OVC220 26/18 A2977 RMK AO2 SLP074 T02560183 10283 20250 55003

时间: 18:51 (00:51 UTC)

预报

该预报发布于1小时和18分钟前的23:33 UTC
预报有效从05日的 00点(UTC)到 06日的 06点(UTC)
风速6节,风向
能見度: 10公里
散云层高于4500英尺
多云层高于25000英尺
从 05日的 0800点(UTC)
风速2节,风向西南
能見度: 10公里
散云层高于800英尺
短暂存在
从 05日的 10点(UTC)到 05日的 14点(UTC)
能見度: 8.0公里
多云层高于800英尺
轻雾
从 05日的 1600点(UTC)
风速6节,风向西
能見度: 10公里
天空无云
从 06日的 0000点(UTC)
风速3节,风向多变
能見度: 10公里
天空无云

TAF: KAUS 042333Z 0500/0606 18006KT P6SM SCT045 BKN250 FM050800 22002KT P6SM SCT008 TEMPO 0510/0514 5SM BR BKN008 FM051600 27006KT P6SM SKC FM060000 VRB03KT P6SM SKC

超过4000个机场的气象观测和天气预报(METAR&TAF报告)。

可查询的气象台以黄色和红色小点在地图上表示。

将鼠标移到小点上方,可查看气象台名称。

然后点击查看天气观测和预报。

如需切换地图:点击带黑十字的绿色按钮放大地图;点击带横线的绿色按钮缩小地图;或者点击绿色箭头查看邻近地区的地图。


METAR-TAF: